Terminal Aerodrome Forecast
Issued by NWS

Home | Current Version | Previous Version | Text Only | Print | Product List | Glossary On
Versions: 1 2 3 4 5 6 7 8 9 10 11 12 13 14 15 16
440
FTUS45 KRIW 210410 AAA
TAFBPI
TAF AMD
KBPI 210410Z 2104/2124 VRB04KT P6SM SCT040 BKN060
      TEMPO 2106/2109 1SM BR SCT005
     FM210900 VRB04KT P6SM SCT015 BKN020
     FM211700 VRB04KT P6SM VCSH SCT020 BKN040
     FM212200 32013KT P6SM SCT040 BKN070=

USA.gov is the U.S. government's official web portal to all federal, state and local government web resources and services.